Time;durP1;ratioP1;P1;durP2;ratioP2;P2;SDS_P1;SDS_P2;PMS_P1;PMS_P2;Temp;Humidity;BMP_temperature;BMP_pressure;BME280_temperature;BME280_humidity;BME280_pressure;Samples;Min_cycle;Max_cycle;Signal;HPM_P1;HPM_P2
2022/10/12 00:01:25;;;;;;;54.92;38.55;;;16.90;97.80;;;;;;4592411;19;20452;-31
2022/10/12 00:02:57;;;;;;;58.60;40.20;;;16.90;97.80;;;;;;4592447;19;20096;-30
2022/10/12 00:04:28;;;;;;;56.92;40.28;;;16.80;97.80;;;;;;4591096;19;20011;-29
2022/10/12 00:06:09;;;;;;;57.60;40.35;;;16.80;97.70;;;;;;4591773;19;20045;-30
2022/10/12 00:07:41;;;;;;;59.17;41.00;;;16.80;97.70;;;;;;4592414;19;20353;-30
2022/10/12 00:09:12;;;;;;;60.22;43.58;;;16.90;97.70;;;;;;4592717;19;20002;-30
2022/10/12 00:10:43;;;;;;;59.42;42.60;;;16.80;97.70;;;;;;4591981;19;20018;-30
2022/10/12 00:12:14;;;;;;;61.58;44.25;;;16.80;97.80;;;;;;4591045;19;20015;-31
2022/10/12 00:13:45;;;;;;;57.60;42.22;;;16.80;97.90;;;;;;4591590;19;20464;-30
2022/10/12 00:15:17;;;;;;;59.95;41.95;;;16.80;97.90;;;;;;4592795;19;20028;-30
2022/10/12 00:16:48;;;;;;;59.05;43.33;;;16.80;97.90;;;;;;4591857;19;20018;-29
2022/10/12 00:18:19;;;;;;;54.75;40.33;;;16.80;97.80;;;;;;4591868;19;20017;-30
2022/10/12 00:19:50;;;;;;;53.85;38.15;;;16.80;98.00;;;;;;4591526;19;20464;-30
2022/10/12 00:21:21;;;;;;;60.17;40.60;;;16.80;97.80;;;;;;4591875;19;20011;-30
2022/10/12 00:22:52;;;;;;;49.15;36.92;;;16.80;97.80;;;;;;4589273;19;20058;-31
2022/10/12 00:24:24;;;;;;;56.20;40.85;;;16.80;97.70;;;;;;4592510;19;20017;-30
2022/10/12 00:25:55;;;;;;;54.75;37.75;;;16.80;97.70;;;;;;4591080;19;20011;-31
2022/10/12 00:27:26;;;;;;;53.25;37.85;;;16.80;97.70;;;;;;4591303;19;20018;-31
2022/10/12 00:28:59;;;;;;;54.03;39.78;;;16.80;97.60;;;;;;4592067;19;20006;-31
2022/10/12 00:30:30;;;;;;;58.38;38.63;;;16.80;97.60;;;;;;4590301;19;20021;-30
2022/10/12 00:32:01;;;;;;;53.60;39.22;;;16.80;97.60;;;;;;4591656;19;20010;-30
2022/10/12 00:33:33;;;;;;;60.33;41.78;;;16.80;97.60;;;;;;4589163;19;20100;-30
2022/10/12 00:35:04;;;;;;;57.05;39.65;;;16.80;97.60;;;;;;4590833;19;20010;-30
2022/10/12 00:36:35;;;;;;;54.35;40.85;;;16.80;97.60;;;;;;4592515;19;20007;-30
2022/10/12 00:38:06;;;;;;;53.33;38.17;;;16.80;97.60;;;;;;4591282;19;20021;-30
2022/10/12 00:39:37;;;;;;;56.88;40.55;;;16.80;97.50;;;;;;4590786;19;20333;-30
2022/10/12 00:41:08;;;;;;;55.22;39.45;;;16.80;97.40;;;;;;4591903;19;20058;-30
2022/10/12 00:42:39;;;;;;;54.78;38.78;;;16.80;97.40;;;;;;4589110;19;20015;-32
2022/10/12 00:44:37;;;;;;;57.67;38.35;;;16.80;97.40;;;;;;4589712;19;20031;-29
2022/10/12 00:46:16;;;;;;;53.22;38.42;;;16.80;97.30;;;;;;4588732;19;20025;-30
2022/10/12 00:47:51;;;;;;;53.35;38.92;;;16.80;97.30;;;;;;4589115;19;20036;-30
2022/10/12 00:49:23;;;;;;;52.72;38.53;;;16.80;97.30;;;;;;4588895;19;20022;-30
2022/10/12 00:50:55;;;;;;;50.63;36.50;;;16.80;97.30;;;;;;4589722;19;20062;-31
2022/10/12 00:52:30;;;;;;;53.90;37.22;;;16.70;97.20;;;;;;4588603;19;20075;-30
2022/10/12 00:54:03;;;;;;;52.90;37.78;;;16.80;97.30;;;;;;4588802;19;20015;-29
2022/10/12 00:55:37;;;;;;;53.97;36.85;;;16.80;97.20;;;;;;4589213;19;20014;-30
2022/10/12 00:57:09;;;;;;;48.80;36.40;;;16.80;97.20;;;;;;4589136;19;20013;-30
2022/10/12 00:58:41;;;;;;;47.17;35.75;;;16.70;97.10;;;;;;4588995;19;20485;-30
2022/10/12 01:00:12;;;;;;;52.38;36.67;;;16.80;97.00;;;;;;4587453;19;20047;-30
2022/10/12 01:01:43;;;;;;;;;;;16.70;97.10;;;;;;4589928;19;19998;-31
2022/10/12 01:03:17;;;;;;;48.60;35.35;;;16.80;97.10;;;;;;4589154;19;20388;-30
2022/10/12 01:04:48;;;;;;;48.72;33.50;;;16.80;97.10;;;;;;4588375;19;20014;-29
2022/10/12 01:06:19;;;;;;;45.95;33.90;;;16.80;97.00;;;;;;4588939;19;20065;-31
2022/10/12 01:07:50;;;;;;;48.15;33.72;;;16.80;96.90;;;;;;4588654;19;20082;-30
2022/10/12 01:09:21;;;;;;;44.78;32.25;;;16.90;96.90;;;;;;4588589;19;20015;-30
2022/10/12 01:10:54;;;;;;;44.28;31.95;;;16.90;96.90;;;;;;4588810;19;20015;-30
2022/10/12 01:12:25;;;;;;;49.53;32.83;;;16.90;96.90;;;;;;4588427;19;20014;-30
2022/10/12 01:13:57;;;;;;;45.08;31.30;;;16.90;96.70;;;;;;4588488;19;20014;-30
2022/10/12 01:15:38;;;;;;;43.47;32.38;;;16.90;96.70;;;;;;4588357;19;20014;-31
2022/10/12 01:17:31;;;;;;;44.47;32.03;;;16.90;96.60;;;;;;4588611;19;20022;-30
2022/10/12 01:19:27;;;;;;;43.25;31.95;;;16.90;96.60;;;;;;4587239;19;20019;-30
2022/10/12 01:21:06;;;;;;;44.35;30.70;;;16.90;96.50;;;;;;4590710;19;20002;-30
2022/10/12 01:22:46;;;;;;;48.15;32.47;;;16.90;96.60;;;;;;4588044;19;20108;-31
2022/10/12 01:24:41;;;;;;;45.72;32.13;;;16.80;96.60;;;;;;4589490;19;20010;-30
2022/10/12 01:26:34;;;;;;;44.58;32.95;;;16.80;96.50;;;;;;4589255;19;20002;-30
2022/10/12 01:28:31;;;;;;;44.28;31.27;;;16.80;96.50;;;;;;4590285;19;20520;-30
2022/10/12 01:30:17;;;;;;;40.17;29.45;;;16.80;96.60;;;;;;4589323;19;20019;-31
2022/10/12 01:32:22;;;;;;;39.00;28.63;;;16.80;96.70;;;;;;4589822;19;20074;-30
2022/10/12 01:34:14;;;;;;;39.00;29.40;;;16.80;96.60;;;;;;4589456;19;20027;-30
2022/10/12 01:35:50;;;;;;;39.97;28.85;;;16.80;96.40;;;;;;4589073;19;20019;-30
2022/10/12 01:37:52;;;;;;;40.30;29.88;;;16.80;96.40;;;;;;4589929;19;20015;-30
2022/10/12 01:39:45;;;;;;;38.15;28.08;;;16.80;96.40;;;;;;4587422;19;20007;-29
2022/10/12 01:41:26;;;;;;;38.90;28.13;;;16.80;96.50;;;;;;4588321;19;20033;-30
2022/10/12 01:42:57;;;;;;;38.67;28.60;;;16.80;96.40;;;;;;4588258;19;20449;-30
2022/10/12 01:44:29;;;;;;;40.42;28.65;;;16.80;96.40;;;;;;4587410;19;20035;-30
2022/10/12 01:46:05;;;;;;;39.70;28.42;;;16.80;96.40;;;;;;4583969;19;20380;-30
2022/10/12 01:47:37;;;;;;;38.28;28.17;;;16.70;96.40;;;;;;4589360;19;20043;-30
2022/10/12 01:49:08;;;;;;;;;;;16.70;96.40;;;;;;4585286;19;20326;-30
2022/10/12 01:50:50;;;;;;;40.65;28.08;;;16.70;96.30;;;;;;4587822;19;19919;-30
2022/10/12 01:52:24;;;;;;;42.75;29.35;;;16.70;96.30;;;;;;4587113;19;20038;-30
2022/10/12 01:54:06;;;;;;;40.03;28.38;;;16.70;96.30;;;;;;4587912;19;20021;-30
2022/10/12 01:55:54;;;;;;;39.45;28.45;;;16.70;96.40;;;;;;4588769;19;20026;-31
2022/10/12 01:58:07;;;;;;;37.35;27.60;;;16.70;96.30;;;;;;4588657;19;20065;-31
2022/10/12 01:59:41;;;;;;;37.85;26.50;;;16.70;96.20;;;;;;4587485;19;20010;-30
2022/10/12 02:01:19;;;;;;;39.00;27.02;;;16.70;96.30;;;;;;4587766;19;20343;-31
2022/10/12 02:03:13;;;;;;;37.30;26.52;;;16.70;96.30;;;;;;4588185;19;20018;-30
2022/10/12 02:04:55;;;;;;;34.17;25.83;;;16.70;96.30;;;;;;4587526;19;20404;-30
2022/10/12 02:06:30;;;;;;;33.78;25.25;;;16.70;96.40;;;;;;4587948;19;20015;-30
2022/10/12 02:08:16;;;;;;;32.92;23.98;;;16.70;96.40;;;;;;4586463;19;20461;-31
2022/10/12 02:09:47;;;;;;;33.75;24.48;;;16.70;96.40;;;;;;4587204;19;20017;-29
2022/10/12 02:11:19;;;;;;;34.58;25.05;;;16.70;96.40;;;;;;4587709;19;20011;-29
2022/10/12 02:12:50;;;;;;;27.63;20.27;;;16.70;96.50;;;;;;4587552;19;20436;-31
2022/10/12 02:14:23;;;;;;;25.38;19.05;;;16.70;96.50;;;;;;4587318;19;20029;-30
2022/10/12 02:15:54;;;;;;;28.17;21.67;;;16.70;96.50;;;;;;4586796;19;20029;-30
2022/10/12 02:17:25;;;;;;;30.58;21.83;;;16.70;96.40;;;;;;4588371;19;20006;-31
2022/10/12 02:18:56;;;;;;;26.38;20.77;;;16.70;96.40;;;;;;4587401;19;20456;-30
2022/10/12 02:20:27;;;;;;;27.52;19.65;;;16.70;96.50;;;;;;4589920;19;20025;-30
2022/10/12 02:22:00;;;;;;;25.08;19.13;;;16.70;96.20;;;;;;4588849;19;20014;-29
2022/10/12 02:23:31;;;;;;;24.45;18.38;;;16.60;96.20;;;;;;4588302;19;20011;-31
2022/10/12 02:25:05;;;;;;;24.40;18.05;;;16.70;96.30;;;;;;4588217;19;20516;-29
2022/10/12 02:26:38;;;;;;;23.83;18.17;;;16.70;96.20;;;;;;4586908;19;20399;-29
2022/10/12 02:28:10;;;;;;;21.90;16.00;;;16.70;96.10;;;;;;4587819;19;20043;-29
2022/10/12 02:29:42;;;;;;;20.92;16.05;;;16.70;96.20;;;;;;4588073;19;20018;-31
2022/10/12 02:31:18;;;;;;;26.23;16.73;;;16.60;96.20;;;;;;4589333;19;20015;-30
2022/10/12 02:32:56;;;;;;;23.38;15.88;;;16.60;96.20;;;;;;4588138;19;20033;-29
2022/10/12 02:34:47;;;;;;;22.20;17.63;;;16.70;96.20;;;;;;4587855;19;20082;-29
2022/10/12 02:36:24;;;;;;;22.83;17.85;;;16.60;96.10;;;;;;4588173;19;20133;-29
2022/10/12 02:38:12;;;;;;;25.98;18.88;;;16.60;96.00;;;;;;4587621;19;20124;-29
2022/10/12 02:39:53;;;;;;;24.25;18.27;;;16.60;95.90;;;;;;4587468;19;20115;-30
2022/10/12 02:41:28;;;;;;;23.88;17.58;;;16.60;95.90;;;;;;4587951;19;20036;-30
2022/10/12 02:43:28;;;;;;;23.80;17.25;;;16.60;95.90;;;;;;4587705;19;20015;-30
2022/10/12 02:44:59;;;;;;;23.63;17.08;;;16.60;95.90;;;;;;4586696;19;20018;-31
2022/10/12 02:46:30;;;;;;;23.85;16.83;;;16.60;95.80;;;;;;4589894;19;20353;-30
2022/10/12 02:48:01;;;;;;;21.95;17.10;;;16.70;95.80;;;;;;4591586;19;20007;-29
2022/10/12 02:49:33;;;;;;;23.05;15.95;;;16.60;95.70;;;;;;4591725;19;20014;-30
2022/10/12 02:51:05;;;;;;;21.00;15.70;;;16.70;95.70;;;;;;4591191;19;20342;-30
2022/10/12 02:52:36;;;;;;;22.52;15.18;;;16.60;95.60;;;;;;4591446;19;20018;-29
2022/10/12 02:54:07;;;;;;;18.52;14.15;;;16.60;95.60;;;;;;4591659;19;20026;-29
2022/10/12 02:55:54;;;;;;;20.70;14.88;;;16.50;95.70;;;;;;4590684;19;20014;-30
2022/10/12 02:57:26;;;;;;;19.83;14.68;;;16.60;95.90;;;;;;4591304;19;20014;-30
2022/10/12 02:58:57;;;;;;;19.75;14.20;;;16.60;95.90;;;;;;4590715;19;20006;-30
2022/10/12 03:00:29;;;;;;;18.58;13.60;;;16.60;95.90;;;;;;4591333;19;20013;-29
2022/10/12 03:02:00;;;;;;;19.60;14.10;;;16.50;95.90;;;;;;4591375;19;20023;-30
2022/10/12 03:03:31;;;;;;;17.70;12.82;;;16.60;95.80;;;;;;4590704;19;20477;-29
2022/10/12 03:05:02;;;;;;;18.88;13.25;;;16.60;95.90;;;;;;4591036;19;20031;-30
2022/10/12 03:06:33;;;;;;;17.00;13.07;;;16.60;95.80;;;;;;4591727;19;20006;-28
2022/10/12 03:08:04;;;;;;;17.17;13.60;;;16.50;95.80;;;;;;4590786;19;20098;-28
2022/10/12 03:09:36;;;;;;;18.45;13.57;;;16.60;95.90;;;;;;4590590;19;20433;-29
2022/10/12 03:11:08;;;;;;;16.60;12.77;;;16.60;95.70;;;;;;4590871;19;20029;-31
2022/10/12 03:12:39;;;;;;;18.40;13.05;;;16.60;95.70;;;;;;4591168;19;20095;-29
2022/10/12 03:14:11;;;;;;;20.63;15.02;;;16.60;95.70;;;;;;4590692;19;20018;-29
2022/10/12 03:15:42;;;;;;;15.13;11.75;;;16.50;95.60;;;;;;4590781;19;20010;-29
2022/10/12 03:17:13;;;;;;;16.50;12.80;;;16.60;95.50;;;;;;4590622;19;20092;-29
2022/10/12 03:18:44;;;;;;;16.25;12.45;;;16.60;95.50;;;;;;4590135;19;20472;-29
2022/10/12 03:20:15;;;;;;;18.30;13.45;;;16.60;95.60;;;;;;4589689;19;20014;-30
2022/10/12 03:21:47;;;;;;;16.02;12.38;;;16.60;95.60;;;;;;4590896;19;20014;-30
2022/10/12 03:23:18;;;;;;;16.00;11.90;;;16.50;95.40;;;;;;4592637;19;20030;-29
2022/10/12 03:24:49;;;;;;;15.27;11.93;;;16.50;95.50;;;;;;4592770;19;20087;-30
2022/10/12 03:26:20;;;;;;;16.52;11.63;;;16.60;95.40;;;;;;4592643;19;20396;-30
2022/10/12 03:27:51;;;;;;;15.10;11.23;;;16.60;95.40;;;;;;4593183;19;20035;-30
2022/10/12 03:29:23;;;;;;;15.50;10.82;;;16.60;95.50;;;;;;4593316;19;20018;-30
2022/10/12 03:30:54;;;;;;;15.52;11.15;;;16.50;95.50;;;;;;4592440;19;20014;-29
2022/10/12 03:32:25;;;;;;;15.63;11.70;;;16.60;95.50;;;;;;4591917;19;20007;-29
2022/10/12 03:33:56;;;;;;;15.52;11.30;;;16.60;95.40;;;;;;4592117;19;20010;-29
2022/10/12 03:35:28;;;;;;;14.88;10.90;;;16.60;95.70;;;;;;4592165;19;20025;-30
2022/10/12 03:36:59;;;;;;;14.82;11.77;;;16.60;95.50;;;;;;4592282;19;20035;-30
2022/10/12 03:38:30;;;;;;;16.27;11.55;;;16.50;95.50;;;;;;4592990;19;20016;-30
2022/10/12 03:40:01;;;;;;;14.70;10.82;;;16.60;95.50;;;;;;4591826;19;20029;-31
2022/10/12 03:41:32;;;;;;;13.77;10.30;;;16.60;95.50;;;;;;4593137;19;20010;-29
2022/10/12 03:43:03;;;;;;;20.63;11.88;;;16.60;95.50;;;;;;4591377;19;20066;-29
2022/10/12 03:44:35;;;;;;;13.13;10.48;;;16.60;95.50;;;;;;4592540;19;20010;-29
2022/10/12 03:46:06;;;;;;;15.95;10.73;;;16.60;95.40;;;;;;4592940;19;20027;-30
2022/10/12 03:47:37;;;;;;;14.55;11.60;;;16.60;95.50;;;;;;4592274;19;20074;-32
2022/10/12 03:49:08;;;;;;;15.43;11.65;;;16.50;95.50;;;;;;4592698;19;20011;-31
2022/10/12 03:50:39;;;;;;;13.68;9.98;;;16.60;95.40;;;;;;4591697;19;20098;-30
2022/10/12 03:52:11;;;;;;;11.35;9.57;;;16.60;95.40;;;;;;4591985;19;20014;-29
2022/10/12 03:53:42;;;;;;;11.30;9.38;;;16.60;95.40;;;;;;4591754;19;20078;-30
2022/10/12 03:55:13;;;;;;;13.43;9.68;;;16.50;95.40;;;;;;4592716;19;20034;-29
2022/10/12 03:56:44;;;;;;;12.63;10.20;;;16.50;95.40;;;;;;4591369;19;20456;-31
2022/10/12 03:58:16;;;;;;;12.27;9.48;;;16.50;95.40;;;;;;4592773;19;20007;-29
2022/10/12 03:59:47;;;;;;;12.57;8.68;;;16.50;95.40;;;;;;4590232;19;20421;-30
2022/10/12 04:01:18;;;;;;;12.43;9.10;;;16.60;95.50;;;;;;4592123;19;20015;-29
2022/10/12 04:02:49;;;;;;;14.23;8.77;;;16.60;95.50;;;;;;4592698;19;20017;-30
2022/10/12 04:04:20;;;;;;;11.77;8.75;;;16.50;95.40;;;;;;4590998;19;20019;-30
2022/10/12 04:05:54;;;;;;;12.77;9.48;;;16.60;95.40;;;;;;4591728;19;20007;-29
2022/10/12 04:07:27;;;;;;;9.25;8.00;;;16.60;95.40;;;;;;4592314;19;20461;-29
2022/10/12 04:08:58;;;;;;;11.63;8.93;;;16.60;95.40;;;;;;4592336;19;20014;-31
2022/10/12 04:10:29;;;;;;;11.27;7.75;;;16.60;95.30;;;;;;4591914;19;20350;-29
2022/10/12 04:12:00;;;;;;;10.23;7.55;;;16.60;95.20;;;;;;4590929;19;20011;-30
2022/10/12 04:13:31;;;;;;;10.02;7.57;;;16.50;95.10;;;;;;4591798;19;20002;-30
2022/10/12 04:15:03;;;;;;;10.18;7.90;;;16.50;95.10;;;;;;4592777;19;20010;-31
2022/10/12 04:16:34;;;;;;;10.40;8.25;;;16.50;95.20;;;;;;4592079;19;20374;-30
2022/10/12 04:18:05;;;;;;;11.32;8.50;;;16.50;95.10;;;;;;4592478;19;20037;-30
2022/10/12 04:19:36;;;;;;;10.98;8.52;;;16.60;95.00;;;;;;4590529;19;20007;-30
2022/10/12 04:21:09;;;;;;;9.95;7.57;;;16.50;95.00;;;;;;4590703;19;20010;-30
2022/10/12 04:22:41;;;;;;;10.82;8.38;;;16.50;95.10;;;;;;4590755;19;20015;-30
2022/10/12 04:24:12;;;;;;;12.45;9.35;;;16.60;95.10;;;;;;4591398;19;20022;-30
2022/10/12 04:25:43;;;;;;;9.90;7.88;;;16.60;95.10;;;;;;4592129;19;20338;-29
2022/10/12 04:27:14;;;;;;;15.93;8.55;;;16.60;95.20;;;;;;4590776;19;20003;-31
2022/10/12 04:28:45;;;;;;;11.27;8.43;;;16.50;95.10;;;;;;4591613;19;20010;-30
2022/10/12 04:30:17;;;;;;;11.73;8.57;;;16.50;95.10;;;;;;4591626;19;20066;-31
2022/10/12 04:31:48;;;;;;;;;;;16.60;95.10;;;;;;4593302;19;20007;-30
2022/10/12 04:33:19;;;;;;;10.48;8.30;;;16.60;95.40;;;;;;4591754;19;19926;-30
2022/10/12 04:34:50;;;;;;;11.15;8.30;;;16.60;95.20;;;;;;4591852;19;20018;-29
2022/10/12 04:36:23;;;;;;;10.05;7.95;;;16.60;95.10;;;;;;4592358;19;20436;-30
2022/10/12 04:37:55;;;;;;;11.63;8.77;;;16.50;95.00;;;;;;4591943;19;20002;-30
2022/10/12 04:39:26;;;;;;;12.13;8.90;;;16.50;94.90;;;;;;4590972;19;20015;-31
2022/10/12 04:40:57;;;;;;;12.07;9.13;;;16.50;94.90;;;;;;4591297;19;20045;-30
2022/10/12 04:42:28;;;;;;;11.65;9.02;;;16.50;94.90;;;;;;4591398;19;20031;-30
2022/10/12 04:44:00;;;;;;;11.00;9.18;;;16.50;94.90;;;;;;4591440;19;20074;-30
2022/10/12 04:45:31;;;;;;;11.80;9.15;;;16.50;94.90;;;;;;4591626;19;20066;-30
2022/10/12 04:47:02;;;;;;;12.48;10.27;;;16.50;95.00;;;;;;4591210;19;20401;-30
2022/10/12 04:48:33;;;;;;;12.43;10.13;;;16.50;95.00;;;;;;4590426;19;20039;-29
2022/10/12 04:50:05;;;;;;;10.98;8.65;;;16.60;95.00;;;;;;4591775;19;20024;-30
2022/10/12 04:51:36;;;;;;;11.38;9.48;;;16.50;95.00;;;;;;4591031;19;20014;-29
2022/10/12 04:53:07;;;;;;;11.45;9.25;;;16.50;94.90;;;;;;4591358;19;20032;-32
2022/10/12 04:54:38;;;;;;;12.40;9.73;;;16.50;94.80;;;;;;4590677;19;20018;-30
2022/10/12 04:56:09;;;;;;;11.65;9.20;;;16.50;94.80;;;;;;4590076;19;20408;-31
2022/10/12 04:57:40;;;;;;;11.65;9.85;;;16.60;94.70;;;;;;4589022;19;20014;-30
2022/10/12 04:59:12;;;;;;;12.52;9.85;;;16.50;94.80;;;;;;4588943;19;20491;-30
2022/10/12 05:00:43;;;;;;;13.80;9.90;;;16.60;94.80;;;;;;4589401;19;20025;-30
2022/10/12 05:02:16;;;;;;;12.32;9.77;;;16.60;94.70;;;;;;4590856;19;20014;-30
2022/10/12 05:03:47;;;;;;;16.42;11.35;;;16.60;94.70;;;;;;4591392;19;20018;-31
2022/10/12 05:05:18;;;;;;;15.55;11.98;;;16.60;94.60;;;;;;4591543;19;20030;-30
2022/10/12 05:06:49;;;;;;;14.27;10.85;;;16.60;94.50;;;;;;4589090;19;20010;-29
2022/10/12 05:08:20;;;;;;;14.15;10.98;;;16.60;94.50;;;;;;4589938;19;20011;-29
2022/10/12 05:09:52;;;;;;;13.77;10.75;;;16.60;94.50;;;;;;4589890;19;20756;-31
2022/10/12 05:11:23;;;;;;;14.43;10.63;;;16.60;94.40;;;;;;4589944;19;20014;-31
2022/10/12 05:12:54;;;;;;;15.73;12.00;;;16.60;94.50;;;;;;4590322;19;20006;-29
2022/10/12 05:14:25;;;;;;;14.18;10.90;;;16.60;94.70;;;;;;4589342;19;20078;-29
2022/10/12 05:15:56;;;;;;;17.25;11.30;;;16.60;94.60;;;;;;4589755;19;20025;-31
2022/10/12 05:17:28;;;;;;;14.88;11.07;;;16.60;94.60;;;;;;4589562;19;20357;-30
2022/10/12 05:18:59;;;;;;;14.40;11.95;;;16.60;94.50;;;;;;4587986;19;20390;-31
2022/10/12 05:20:31;;;;;;;13.82;11.27;;;16.60;94.60;;;;;;4588612;19;20034;-29
2022/10/12 05:22:02;;;;;;;14.13;10.32;;;16.60;94.50;;;;;;4588859;19;20018;-30
2022/10/12 05:23:33;;;;;;;14.35;11.80;;;16.70;94.40;;;;;;4590091;19;20479;-30
2022/10/12 05:25:05;;;;;;;14.73;12.20;;;16.60;94.40;;;;;;4590049;19;20014;-29
2022/10/12 05:26:36;;;;;;;16.38;10.82;;;16.70;94.40;;;;;;4590408;19;20038;-29
2022/10/12 05:28:07;;;;;;;16.13;11.13;;;16.70;94.50;;;;;;4589368;19;20018;-30
2022/10/12 05:29:38;;;;;;;18.08;13.70;;;16.70;94.60;;;;;;4587051;19;20038;-29
2022/10/12 05:31:09;;;;;;;15.48;12.45;;;16.70;94.60;;;;;;4587899;19;20014;-29
2022/10/12 05:32:40;;;;;;;17.27;12.98;;;16.70;94.60;;;;;;4588991;19;20010;-30
2022/10/12 05:34:11;;;;;;;19.65;12.70;;;16.70;94.50;;;;;;4588406;19;20006;-29
2022/10/12 05:35:43;;;;;;;16.05;12.52;;;16.70;94.50;;;;;;4587484;19;20522;-31
2022/10/12 05:37:14;;;;;;;15.93;11.48;;;16.70;94.60;;;;;;4587883;19;20049;-29
2022/10/12 05:38:45;;;;;;;17.48;13.10;;;16.70;94.60;;;;;;4588425;19;20014;-30
2022/10/12 05:40:16;;;;;;;18.42;13.52;;;16.70;94.60;;;;;;4589431;19;20035;-31
2022/10/12 05:41:48;;;;;;;19.10;14.40;;;16.70;94.60;;;;;;4587212;19;20018;-30
2022/10/12 05:43:19;;;;;;;19.25;13.25;;;16.70;94.90;;;;;;4588243;19;20043;-29
2022/10/12 05:44:50;;;;;;;19.05;12.73;;;16.70;94.70;;;;;;4589115;19;20041;-30
2022/10/12 05:46:21;;;;;;;18.17;13.55;;;16.80;94.70;;;;;;4587483;19;20018;-30
2022/10/12 05:47:52;;;;;;;19.38;14.23;;;16.90;94.80;;;;;;4587963;19;20484;-30
2022/10/12 05:49:23;;;;;;;17.60;14.52;;;16.90;94.70;;;;;;4585287;19;20025;-31
2022/10/12 05:50:54;;;;;;;19.75;14.73;;;16.90;94.70;;;;;;4589507;19;20014;-30
2022/10/12 05:52:25;;;;;;;17.85;14.02;;;16.90;94.70;;;;;;4589655;19;20035;-30
2022/10/12 05:53:57;;;;;;;18.63;14.02;;;16.90;94.70;;;;;;4588776;19;20039;-30
2022/10/12 05:55:29;;;;;;;18.80;14.05;;;16.90;94.70;;;;;;4589498;19;20014;-28
2022/10/12 05:57:00;;;;;;;19.83;17.07;;;16.70;94.60;;;;;;4589264;19;20354;-28
2022/10/12 05:58:31;;;;;;;21.27;17.02;;;14.30;96.60;;;;;;4588941;19;20049;-27
2022/10/12 06:00:04;;;;;;;22.48;17.00;;;13.00;98.60;;;;;;4587388;19;20021;-27
2022/10/12 06:01:35;;;;;;;22.30;18.43;;;12.40;99.80;;;;;;4588688;19;20007;-27
2022/10/12 06:03:06;;;;;;;21.63;18.77;;;12.00;99.90;;;;;;4587816;19;20436;-27
2022/10/12 06:04:37;;;;;;;23.17;20.48;;;11.80;99.90;;;;;;4590670;19;20018;-27
2022/10/12 06:06:09;;;;;;;25.23;19.63;;;11.70;99.90;;;;;;4590219;19;20011;-27
2022/10/12 06:07:40;;;;;;;23.42;17.92;;;11.60;99.90;;;;;;4590281;19;20381;-27
2022/10/12 06:09:11;;;;;;;21.85;19.38;;;11.50;99.90;;;;;;4589012;19;20596;-28
2022/10/12 06:10:44;;;;;;;22.75;17.92;;;11.50;99.90;;;;;;4588818;19;20066;-27
2022/10/12 06:12:15;;;;;;;23.03;18.40;;;11.50;99.90;;;;;;4588319;19;20372;-27
2022/10/12 06:13:46;;;;;;;19.33;16.88;;;11.50;99.90;;;;;;4587986;19;21086;-28
2022/10/12 06:15:17;;;;;;;20.40;17.98;;;11.40;99.90;;;;;;4587629;19;20015;-27
2022/10/12 06:16:48;;;;;;;21.75;17.75;;;11.40;99.90;;;;;;4587132;19;20014;-27
2022/10/12 06:18:20;;;;;;;20.70;17.85;;;11.40;99.90;;;;;;4587947;19;20479;-28
2022/10/12 06:19:51;;;;;;;21.77;18.73;;;11.40;99.90;;;;;;4588911;19;20395;-28
2022/10/12 06:21:22;;;;;;;21.20;18.20;;;11.40;99.90;;;;;;4593479;19;20067;-26
2022/10/12 06:22:53;;;;;;;22.38;19.05;;;11.40;99.90;;;;;;4593577;19;20037;-28
2022/10/12 06:24:25;;;;;;;31.67;23.30;;;11.40;99.90;;;;;;4593796;19;20383;-28
2022/10/12 06:25:56;;;;;;;33.90;23.33;;;11.40;99.90;;;;;;4593345;19;20464;-27
2022/10/12 06:27:27;;;;;;;37.03;24.38;;;11.40;99.90;;;;;;4592557;19;20016;-27
2022/10/12 06:29:01;;;;;;;37.93;25.43;;;11.40;99.90;;;;;;4592187;19;20074;-27
2022/10/12 06:30:32;;;;;;;42.13;26.33;;;11.40;99.90;;;;;;4592228;19;20471;-27
2022/10/12 06:32:04;;;;;;;43.03;27.77;;;11.50;99.90;;;;;;4591764;19;20353;-27
2022/10/12 06:33:35;;;;;;;34.15;24.92;;;11.40;99.90;;;;;;4591803;19;20022;-27
2022/10/12 06:35:07;;;;;;;37.92;27.13;;;11.40;99.90;;;;;;4594557;19;20045;-28
2022/10/12 06:36:38;;;;;;;49.93;37.77;;;11.40;99.90;;;;;;4593472;19;20010;-28
2022/10/12 06:38:09;;;;;;;42.15;32.53;;;11.40;99.90;;;;;;4593466;19;20560;-28
2022/10/12 06:39:40;;;;;;;39.83;29.35;;;11.50;99.90;;;;;;4591470;19;20086;-28
2022/10/12 06:41:12;;;;;;;38.60;29.83;;;11.50;99.90;;;;;;4591857;19;20077;-28
2022/10/12 06:42:43;;;;;;;35.47;25.63;;;11.50;99.90;;;;;;4591522;19;20034;-28
2022/10/12 06:44:14;;;;;;;35.40;25.73;;;11.50;99.90;;;;;;4594479;19;20334;-28
2022/10/12 06:45:45;;;;;;;32.75;25.23;;;11.50;99.90;;;;;;4594366;19;20018;-28
2022/10/12 06:47:16;;;;;;;33.03;24.65;;;11.50;99.90;;;;;;4593752;19;20368;-28
2022/10/12 06:48:47;;;;;;;31.38;24.13;;;11.50;99.90;;;;;;4592742;19;20015;-27
2022/10/12 06:50:18;;;;;;;31.13;24.90;;;11.50;99.90;;;;;;4591652;19;20361;-27
2022/10/12 06:51:49;;;;;;;31.80;23.02;;;11.60;99.90;;;;;;4591873;19;20019;-27
2022/10/12 06:53:21;;;;;;;25.10;19.90;;;11.60;99.90;;;;;;4591214;19;20006;-27
2022/10/12 06:54:52;;;;;;;26.00;19.77;;;11.60;99.90;;;;;;4591235;19;20484;-27
2022/10/12 06:56:25;;;;;;;22.53;18.63;;;11.60;99.90;;;;;;4589866;19;20457;-27
2022/10/12 06:57:57;;;;;;;21.90;17.65;;;11.70;99.90;;;;;;4591286;19;20440;-27
2022/10/12 06:59:29;;;;;;;22.87;19.37;;;11.70;99.90;;;;;;4592639;19;20025;-27
2022/10/12 07:01:07;;;;;;;23.25;18.08;;;11.70;99.90;;;;;;4593243;19;20534;-27
2022/10/12 07:02:38;;;;;;;23.23;18.07;;;11.70;99.90;;;;;;4593274;19;20353;-27
2022/10/12 07:04:10;;;;;;;24.42;18.13;;;11.70;99.90;;;;;;4591955;19;20480;-27
2022/10/12 07:05:41;;;;;;;22.63;17.40;;;11.70;99.90;;;;;;4592617;19;20048;-27
2022/10/12 07:07:12;;;;;;;23.48;15.98;;;12.10;99.90;;;;;;4592592;19;20023;-27
2022/10/12 07:08:43;;;;;;;23.98;16.65;;;12.90;99.90;;;;;;4592375;19;20400;-27
2022/10/12 07:10:14;;;;;;;19.48;14.93;;;13.60;99.90;;;;;;4592234;19;20021;-27
2022/10/12 07:11:46;;;;;;;21.63;14.88;;;14.00;99.90;;;;;;4590247;19;20402;-27
2022/10/12 07:13:17;;;;;;;;;;;14.40;99.90;;;;;;4592050;19;20347;-27
2022/10/12 07:14:48;;;;;;;20.50;14.63;;;14.60;99.90;;;;;;4594071;19;19919;-27
2022/10/12 07:16:19;;;;;;;23.98;15.20;;;14.80;99.90;;;;;;4594231;19;20017;-28
2022/10/12 07:17:50;;;;;;;20.60;14.25;;;15.00;99.90;;;;;;4593159;19;20019;-27
2022/10/12 07:19:21;;;;;;;22.77;14.60;;;15.10;99.90;;;;;;4590348;19;20084;-28
2022/10/12 07:20:56;;;;;;;18.98;13.05;;;15.20;99.90;;;;;;4592398;19;20450;-28
2022/10/12 07:22:27;;;;;;;20.87;13.70;;;15.30;99.90;;;;;;4591562;19;20035;-28
2022/10/12 07:23:59;;;;;;;21.20;14.25;;;15.40;99.90;;;;;;4591471;19;20480;-28
2022/10/12 07:25:30;;;;;;;21.05;13.60;;;15.50;99.90;;;;;;4590297;19;20014;-27
2022/10/12 07:27:08;;;;;;;23.48;17.55;;;15.50;99.90;;;;;;4589890;19;20021;-28
2022/10/12 07:28:40;;;;;;;21.50;15.90;;;15.10;99.90;;;;;;4590845;19;20015;-28
2022/10/12 07:30:11;;;;;;;21.83;15.50;;;13.80;99.90;;;;;;4590781;19;20480;-26
2022/10/12 07:31:42;;;;;;;;;;;13.30;99.90;;;;;;4593230;19;20006;-28
2022/10/12 07:33:14;;;;;;;22.13;14.73;;;13.00;99.90;;;;;;4593257;19;19922;-27
2022/10/12 07:34:45;;;;;;;21.48;14.52;;;12.80;99.90;;;;;;4592556;19;20449;-27
2022/10/12 07:36:16;;;;;;;23.33;16.60;;;12.80;99.90;;;;;;4592277;19;20035;-26
2022/10/12 07:37:50;;;;;;;21.42;15.30;;;12.80;99.90;;;;;;4591776;19;20017;-27
2022/10/12 07:39:22;;;;;;;21.13;15.20;;;12.80;99.90;;;;;;4591382;19;20031;-31
2022/10/12 07:40:53;;;;;;;;;;;12.80;99.90;;;;;;4590402;19;20452;-27
2022/10/12 07:42:24;;;;;;;24.00;16.13;;;12.80;99.90;;;;;;4592276;19;19930;-27
2022/10/12 07:43:55;;;;;;;25.17;16.65;;;12.80;99.90;;;;;;4592798;19;20404;-27
2022/10/12 07:45:27;;;;;;;20.83;15.13;;;12.80;99.90;;;;;;4592954;19;20475;-29
2022/10/12 07:46:59;;;;;;;21.50;15.10;;;12.80;99.90;;;;;;4591979;19;20078;-29
2022/10/12 07:48:30;;;;;;;24.35;16.45;;;12.80;99.90;;;;;;4591501;19;20497;-28
2022/10/12 07:50:01;;;;;;;22.95;16.23;;;12.80;99.90;;;;;;4591966;19;20014;-28
2022/10/12 07:51:32;;;;;;;20.20;15.82;;;12.80;99.90;;;;;;4590884;19;20067;-28
2022/10/12 07:53:03;;;;;;;25.08;17.77;;;12.90;99.90;;;;;;4589265;19;20029;-27
2022/10/12 07:54:34;;;;;;;23.27;17.40;;;12.80;99.90;;;;;;4589282;19;20015;-28
2022/10/12 07:56:10;;;;;;;20.30;14.68;;;12.80;99.90;;;;;;4593397;19;20015;-28